Anchor, Illinois
Current Conditions -  °F | °C
As of 9:21 PM on Saturday 22 Nov 2014 (Local Time) from KBMI Reporting Station
Broken Clouds Broken Clouds  
Wind Chill: 11°   Ceiling: 2000
Heat Index: 11°   Visibility: 10mi
Dew Point:   Wind: 20mph
Humidity: 88%   Direction: 200°SSW
Pressure: 29.9"   Gusts: NA
Location:  40.57°N, 88.54°W
Report Text: KBMI 230321Z 20017KT 10SM BKN020 BKN047 11/09 A2990 RMK AO2
Loading
Personal Weather Stations






























Interactive Weather Map New forecast layout! Learn more

10-Day Weather Forecast

Advertisements
Track Severe Weather on mobile